Time;durP1;ratioP1;P1;durP2;ratioP2;P2;SDS_P1;SDS_P2;PMS_P1;PMS_P2;Temp;Humidity;BMP_temperature;BMP_pressure;BME280_temperature;BME280_humidity;BME280_pressure;Samples;Min_cycle;Max_cycle;Signal;HPM_P1;HPM_P2
2021/03/30 00:00:00;;;;;;;11.45;7.47;;;12.20;58.70;;;;;;5046595;28;20025;-82
2021/03/30 00:02:25;;;;;;;9.75;6.45;;;12.10;59.00;;;;;;5032331;28;20033;-82
2021/03/30 00:04:50;;;;;;;11.30;6.40;;;12.00;59.30;;;;;;5041925;28;20029;-82
2021/03/30 00:07:17;;;;;;;10.38;6.88;;;12.00;59.50;;;;;;5030307;28;20381;-82
2021/03/30 00:09:43;;;;;;;9.32;6.47;;;11.90;59.50;;;;;;5045835;28;20030;-82
2021/03/30 00:12:09;;;;;;;9.30;6.80;;;11.90;59.60;;;;;;5032299;28;20032;-83
2021/03/30 00:14:34;;;;;;;11.18;7.30;;;11.90;59.70;;;;;;5030846;28;20440;-82
2021/03/30 00:17:00;;;;;;;9.48;5.90;;;11.80;59.80;;;;;;5026794;28;20053;-82
2021/03/30 00:19:25;;;;;;;10.93;7.55;;;11.80;60.00;;;;;;5029502;28;20028;-82
2021/03/30 00:21:51;;;;;;;12.80;7.75;;;11.80;60.00;;;;;;5030948;28;20065;-82
2021/03/30 00:24:17;;;;;;;12.45;8.05;;;11.80;60.10;;;;;;5029356;28;20052;-82
2021/03/30 00:26:42;;;;;;;11.55;7.35;;;11.70;60.10;;;;;;5042917;28;20021;-81
2021/03/30 00:29:08;;;;;;;14.07;8.02;;;11.70;60.20;;;;;;5032228;28;20096;-82
2021/03/30 00:31:33;;;;;;;13.77;8.35;;;11.60;60.30;;;;;;5046148;28;20459;-82
2021/03/30 00:33:59;;;;;;;13.95;8.07;;;11.60;61.20;;;;;;5046292;28;20017;-82
2021/03/30 00:36:25;;;;;;;14.98;8.70;;;11.60;60.70;;;;;;5032029;28;20017;-82
2021/03/30 00:38:50;;;;;;;13.25;7.25;;;11.50;60.80;;;;;;5031844;28;20263;-82
2021/03/30 00:41:16;;;;;;;13.10;8.20;;;11.50;60.80;;;;;;5030557;28;20366;-82
2021/03/30 00:43:41;;;;;;;12.85;8.18;;;11.50;60.90;;;;;;5030652;28;20017;-82
2021/03/30 00:46:16;;;;;;;15.27;7.80;;;11.40;61.10;;;;;;5030818;28;20024;-82
2021/03/30 00:48:44;;;;;;;14.63;8.50;;;11.40;61.40;;;;;;5030816;28;20033;-82
2021/03/30 00:51:10;;;;;;;14.90;8.98;;;11.30;61.60;;;;;;5041416;28;20021;-82
2021/03/30 00:53:35;;;;;;;13.82;7.85;;;11.30;61.70;;;;;;5029169;28;20022;-82
2021/03/30 00:56:01;;;;;;;13.18;7.93;;;11.30;61.80;;;;;;5044729;28;20022;-82
2021/03/30 00:58:27;;;;;;;12.00;8.05;;;11.30;62.00;;;;;;5030770;28;20017;-83
2021/03/30 01:00:52;;;;;;;12.27;7.82;;;11.30;62.00;;;;;;5030592;28;20392;-82
2021/03/30 01:03:18;;;;;;;10.82;7.10;;;11.30;62.10;;;;;;5046837;28;20380;-82
2021/03/30 01:05:43;;;;;;;12.25;7.90;;;11.30;62.10;;;;;;5028663;28;20021;-82
2021/03/30 01:08:33;;;;;;;13.63;8.38;;;11.30;62.20;;;;;;5032797;28;20021;-82
2021/03/30 01:11:28;;;;;;;17.48;9.82;;;11.30;62.30;;;;;;5030567;28;20022;-82
2021/03/30 01:14:13;;;;;;;16.35;9.00;;;11.20;62.40;;;;;;5031836;28;20036;-82
2021/03/30 01:16:45;;;;;;;16.52;9.60;;;11.10;62.50;;;;;;5019931;28;20083;-82
2021/03/30 01:19:23;;;;;;;17.50;10.05;;;11.20;62.80;;;;;;5033141;28;20096;-82
2021/03/30 01:22:03;;;;;;;15.68;9.60;;;11.10;62.90;;;;;;5035681;28;20017;-82
2021/03/30 01:24:36;;;;;;;19.50;10.90;;;11.10;63.20;;;;;;5032202;28;20018;-82
2021/03/30 01:27:09;;;;;;;19.77;11.38;;;11.00;63.40;;;;;;5035337;28;20010;-82
2021/03/30 01:29:44;;;;;;;17.85;10.30;;;11.10;63.60;;;;;;5047810;28;20024;-82
2021/03/30 01:32:15;;;;;;;14.02;8.68;;;11.10;63.60;;;;;;5046815;28;20028;-82
2021/03/30 01:34:45;;;;;;;14.55;9.32;;;11.00;63.60;;;;;;5035262;28;20017;-82
2021/03/30 01:37:11;;;;;;;;;;;11.00;63.70;;;;;;5050806;28;20021;-82
2021/03/30 01:39:38;;;;;;;14.68;9.07;;;10.90;63.70;;;;;;5033583;28;20376;-83
2021/03/30 01:42:06;;;;;;;21.40;13.55;;;10.80;64.20;;;;;;5044922;28;20477;-82
2021/03/30 01:44:33;;;;;;;20.88;13.15;;;10.50;66.10;;;;;;5035062;28;20026;-82
2021/03/30 01:47:01;;;;;;;18.98;10.77;;;10.40;66.90;;;;;;5048903;28;20059;-82
2021/03/30 01:49:28;;;;;;;15.23;9.57;;;10.30;67.00;;;;;;5048233;28;20064;-82
2021/03/30 01:51:55;;;;;;;12.68;8.60;;;10.30;67.20;;;;;;5034984;28;20080;-83
2021/03/30 01:54:21;;;;;;;12.77;8.07;;;10.20;67.30;;;;;;5034950;28;20032;-83
2021/03/30 01:56:48;;;;;;;12.45;8.05;;;10.10;67.30;;;;;;5033384;28;20032;-82
2021/03/30 01:59:16;;;;;;;11.57;7.47;;;10.10;67.60;;;;;;5049159;28;20032;-82
2021/03/30 02:01:44;;;;;;;12.55;8.63;;;10.00;67.80;;;;;;5034694;28;20025;-82
2021/03/30 02:04:10;;;;;;;13.05;7.70;;;10.00;68.00;;;;;;5034552;28;20084;-82
2021/03/30 02:06:37;;;;;;;12.43;7.95;;;9.90;68.00;;;;;;5047291;28;20023;-82
2021/03/30 02:09:12;;;;;;;15.88;9.65;;;10.00;68.00;;;;;;5047951;28;20025;-83
2021/03/30 02:11:48;;;;;;;16.05;9.75;;;10.00;67.90;;;;;;5048034;28;20032;-83
2021/03/30 02:14:13;;;;;;;13.68;9.07;;;10.00;67.90;;;;;;5034601;28;20022;-82
2021/03/30 02:16:49;;;;;;;15.63;9.18;;;10.00;68.10;;;;;;5031651;28;20468;-83
2021/03/30 02:19:19;;;;;;;14.63;8.88;;;10.00;68.40;;;;;;5049230;28;20516;-82
2021/03/30 02:21:52;;;;;;;17.85;9.55;;;10.00;68.70;;;;;;5034496;28;20018;-82
2021/03/30 02:24:20;;;;;;;16.35;10.23;;;9.90;68.90;;;;;;5030327;28;20108;-82
2021/03/30 02:26:48;;;;;;;16.80;9.75;;;9.90;69.10;;;;;;5034099;28;20067;-82
2021/03/30 02:29:18;;;;;;;16.55;9.43;;;9.80;69.20;;;;;;5031521;28;20022;-83
2021/03/30 02:31:45;;;;;;;14.80;9.33;;;9.80;69.30;;;;;;5032943;28;20034;-83
2021/03/30 02:34:13;;;;;;;16.80;9.50;;;9.80;69.90;;;;;;5031305;28;20261;-82
2021/03/30 02:36:41;;;;;;;16.08;10.02;;;9.80;69.40;;;;;;5049001;28;20017;-82
2021/03/30 02:39:09;;;;;;;17.23;10.07;;;9.80;69.50;;;;;;5032799;28;20053;-82
2021/03/30 02:41:37;;;;;;;20.27;10.82;;;9.80;69.50;;;;;;5032686;28;20027;-82
2021/03/30 02:44:06;;;;;;;17.35;9.93;;;9.90;69.60;;;;;;5044575;28;20014;-82
2021/03/30 02:46:33;;;;;;;16.50;9.65;;;9.90;70.00;;;;;;5033920;28;20017;-82
2021/03/30 02:49:00;;;;;;;15.52;9.35;;;9.80;70.10;;;;;;5032397;28;20538;-82
2021/03/30 02:51:28;;;;;;;14.98;8.88;;;9.70;70.30;;;;;;5046136;28;20037;-82
2021/03/30 02:53:55;;;;;;;18.70;10.93;;;9.60;70.50;;;;;;5033849;28;20022;-83
2021/03/30 02:56:22;;;;;;;18.45;11.05;;;9.50;70.80;;;;;;5033654;28;20021;-82
2021/03/30 02:58:50;;;;;;;18.20;10.52;;;9.40;71.30;;;;;;5048015;28;20021;-82
2021/03/30 03:01:16;;;;;;;18.92;11.65;;;9.30;71.60;;;;;;5033559;28;20519;-82
2021/03/30 03:03:42;;;;;;;14.20;9.55;;;9.20;72.20;;;;;;5032463;28;20029;-82
2021/03/30 03:06:10;;;;;;;13.60;9.07;;;9.00;72.60;;;;;;5045866;28;20029;-82
2021/03/30 03:08:36;;;;;;;15.00;9.48;;;9.00;72.90;;;;;;5042008;28;20026;-82
2021/03/30 03:11:03;;;;;;;13.13;8.15;;;8.90;73.00;;;;;;5047010;28;20025;-82
2021/03/30 03:13:29;;;;;;;12.38;8.10;;;8.90;73.20;;;;;;5032053;28;20476;-82
2021/03/30 03:15:55;;;;;;;13.85;8.70;;;8.90;73.50;;;;;;5045728;28;20032;-81
2021/03/30 03:18:22;;;;;;;15.05;8.68;;;8.80;73.70;;;;;;5031957;28;20108;-82
2021/03/30 03:20:48;;;;;;;13.35;8.05;;;8.80;73.90;;;;;;5048328;28;20052;-82
2021/03/30 03:23:14;;;;;;;12.82;8.30;;;8.80;74.10;;;;;;5033341;28;20044;-83
2021/03/30 03:25:43;;;;;;;14.13;9.18;;;8.80;74.20;;;;;;5044141;28;20048;-82
2021/03/30 03:28:09;;;;;;;13.38;7.45;;;8.80;74.50;;;;;;5033088;28;20033;-82
2021/03/30 03:30:35;;;;;;;15.02;9.07;;;8.70;74.70;;;;;;5031745;28;20110;-82
2021/03/30 03:33:08;;;;;;;16.15;8.27;;;8.70;74.90;;;;;;5043362;28;20030;-82
2021/03/30 03:35:35;;;;;;;13.38;8.38;;;8.70;74.90;;;;;;5032818;28;20024;-82
2021/03/30 03:38:02;;;;;;;13.75;8.45;;;8.70;75.00;;;;;;5045544;28;20044;-82
2021/03/30 03:40:29;;;;;;;16.63;8.90;;;8.70;75.20;;;;;;5045229;28;20034;-82
2021/03/30 03:42:55;;;;;;;16.52;9.13;;;8.70;75.40;;;;;;5032983;28;20111;-82
2021/03/30 03:45:21;;;;;;;15.50;9.10;;;8.60;75.60;;;;;;5030187;28;20021;-82
2021/03/30 03:47:46;;;;;;;13.90;8.52;;;8.60;75.80;;;;;;5045338;28;20044;-82
2021/03/30 03:50:12;;;;;;;15.48;8.93;;;8.60;75.90;;;;;;5044680;28;20025;-83
2021/03/30 03:52:43;;;;;;;14.80;9.10;;;8.60;76.00;;;;;;5032277;28;20396;-82
2021/03/30 03:55:11;;;;;;;12.98;7.78;;;8.60;76.30;;;;;;5027233;28;20507;-82
2021/03/30 03:58:01;;;;;;;11.90;7.85;;;8.60;76.80;;;;;;5032410;28;20481;-82
2021/03/30 04:00:27;;;;;;;12.55;7.40;;;8.60;77.20;;;;;;5044520;28;20014;-82
2021/03/30 04:03:08;;;;;;;13.15;7.93;;;8.50;77.30;;;;;;5032604;28;20104;-83
2021/03/30 04:05:40;;;;;;;12.27;7.55;;;8.50;77.70;;;;;;5045222;28;20026;-83
2021/03/30 04:08:10;;;;;;;14.75;7.72;;;8.50;78.00;;;;;;5042439;28;20542;-83
2021/03/30 04:10:36;;;;;;;12.60;7.90;;;8.40;78.30;;;;;;5029663;28;20037;-82
2021/03/30 04:13:03;;;;;;;14.25;8.68;;;8.30;78.70;;;;;;5032318;28;20037;-83
2021/03/30 04:15:29;;;;;;;15.35;8.07;;;8.30;79.20;;;;;;5045711;28;20086;-80
2021/03/30 04:17:55;;;;;;;13.77;8.60;;;8.30;79.30;;;;;;5046951;28;21192;-82
2021/03/30 04:20:21;;;;;;;12.40;7.82;;;8.20;79.40;;;;;;5032300;28;20044;-82
2021/03/30 04:22:58;;;;;;;12.43;7.97;;;8.20;79.50;;;;;;5044667;28;20055;-82
2021/03/30 04:25:25;;;;;;;16.23;8.10;;;8.20;79.70;;;;;;5031968;28;20045;-82
2021/03/30 04:27:51;;;;;;;12.15;7.65;;;8.10;79.90;;;;;;5032156;28;20040;-82
2021/03/30 04:30:17;;;;;;;12.52;6.72;;;8.00;80.00;;;;;;5029260;28;20034;-82
2021/03/30 04:32:43;;;;;;;13.23;7.50;;;8.00;80.20;;;;;;5032056;28;20033;-83
2021/03/30 04:35:12;;;;;;;13.30;7.70;;;7.90;80.30;;;;;;5041208;28;20108;-82
2021/03/30 04:37:38;;;;;;;17.77;10.52;;;7.90;80.60;;;;;;5031539;28;20017;-82
2021/03/30 04:40:06;;;;;;;20.40;11.57;;;7.80;81.10;;;;;;5044390;28;20061;-82
2021/03/30 04:42:32;;;;;;;19.58;10.85;;;7.80;81.50;;;;;;5043833;28;20056;-83
2021/03/30 04:44:58;;;;;;;18.65;9.32;;;7.80;81.50;;;;;;5044726;28;20057;-83
2021/03/30 04:47:24;;;;;;;15.32;9.27;;;7.80;81.50;;;;;;5030844;28;20079;-82
2021/03/30 04:49:50;;;;;;;14.82;8.23;;;7.90;81.50;;;;;;5044286;28;20516;-82
2021/03/30 04:52:16;;;;;;;14.13;8.52;;;7.90;81.40;;;;;;5030466;28;20037;-82
2021/03/30 04:54:41;;;;;;;18.67;9.20;;;7.90;81.40;;;;;;5033569;28;20481;-82
2021/03/30 04:57:07;;;;;;;16.90;8.50;;;7.90;81.50;;;;;;5048944;28;20021;-82
2021/03/30 04:59:33;;;;;;;18.15;9.48;;;7.90;81.80;;;;;;5048957;28;20014;-82
2021/03/30 05:01:58;;;;;;;13.32;8.52;;;7.90;81.90;;;;;;5035131;28;20112;-83
2021/03/30 05:04:24;;;;;;;15.65;8.70;;;7.80;82.10;;;;;;5035876;28;20032;-82
2021/03/30 05:06:49;;;;;;;12.98;7.72;;;7.80;82.40;;;;;;5047152;28;20022;-82
2021/03/30 05:09:15;;;;;;;13.98;8.52;;;7.70;82.60;;;;;;5034448;28;20144;-84
2021/03/30 05:11:40;;;;;;;14.20;8.45;;;7.60;82.80;;;;;;5032987;28;20365;-82
2021/03/30 05:14:06;;;;;;;15.57;8.50;;;7.60;83.00;;;;;;5037094;28;20080;-82
2021/03/30 05:16:31;;;;;;;18.45;9.43;;;7.60;83.10;;;;;;5025447;28;20026;-83
2021/03/30 05:18:57;;;;;;;15.95;9.45;;;7.60;83.30;;;;;;5016416;28;20473;-82
2021/03/30 05:21:23;;;;;;;15.27;8.88;;;7.60;83.40;;;;;;5015268;28;20022;-83
2021/03/30 05:23:48;;;;;;;13.57;8.25;;;7.60;83.50;;;;;;5015311;28;20030;-82
2021/03/30 05:26:14;;;;;;;14.63;8.20;;;7.60;83.60;;;;;;5015294;28;20022;-82
2021/03/30 05:28:39;;;;;;;15.52;8.85;;;7.60;83.70;;;;;;5016514;28;20583;-82
2021/03/30 05:31:05;;;;;;;15.85;8.80;;;7.60;83.70;;;;;;5016558;28;20426;-82
2021/03/30 05:33:30;;;;;;;14.60;8.50;;;7.60;83.80;;;;;;5016546;28;20163;-82
2021/03/30 05:35:56;;;;;;;21.25;12.43;;;7.60;83.90;;;;;;5016495;28;20048;-84
2021/03/30 05:38:22;;;;;;;25.42;14.32;;;7.60;84.20;;;;;;5031361;28;20026;-82
2021/03/30 05:40:48;;;;;;;24.85;13.73;;;7.70;85.20;;;;;;5015919;28;20046;-82
2021/03/30 05:43:14;;;;;;;27.65;14.40;;;7.70;85.40;;;;;;5031555;28;20026;-82
2021/03/30 05:45:40;;;;;;;24.17;12.95;;;7.70;85.70;;;;;;5015001;28;20032;-83
2021/03/30 05:48:11;;;;;;;21.65;12.35;;;7.70;85.90;;;;;;5031398;28;20117;-83
2021/03/30 05:50:37;;;;;;;19.77;10.63;;;7.70;86.00;;;;;;5016228;28;20033;-83
2021/03/30 05:53:11;;;;;;;23.63;11.18;;;7.70;86.00;;;;;;5014831;28;20022;-83
2021/03/30 05:55:38;;;;;;;16.15;9.77;;;7.70;86.00;;;;;;5014601;28;20026;-83
2021/03/30 05:58:07;;;;;;;21.80;12.82;;;7.70;85.90;;;;;;5016026;28;20032;-84
2021/03/30 06:00:35;;;;;;;23.02;13.93;;;7.60;86.50;;;;;;5033917;28;20029;-83
2021/03/30 06:03:04;;;;;;;28.70;15.73;;;7.70;87.20;;;;;;5033434;28;20025;-83
2021/03/30 06:05:30;;;;;;;28.45;16.45;;;7.60;87.90;;;;;;5033710;28;20499;-82
2021/03/30 06:08:01;;;;;;;30.88;17.25;;;7.50;88.30;;;;;;5033177;28;20032;-84
2021/03/30 06:10:28;;;;;;;24.25;14.10;;;7.40;89.00;;;;;;5035444;28;20100;-83
2021/03/30 06:12:56;;;;;;;26.00;12.82;;;7.40;89.10;;;;;;5024374;28;20037;-84
2021/03/30 06:15:27;;;;;;;24.15;13.07;;;7.40;89.00;;;;;;5020851;28;20366;-83
2021/03/30 06:17:53;;;;;;;22.60;12.57;;;7.40;89.10;;;;;;5034092;28;20049;-83
2021/03/30 06:20:26;;;;;;;28.10;15.13;;;7.50;89.20;;;;;;5034177;28;20022;-82
2021/03/30 06:22:56;;;;;;;27.83;15.93;;;7.60;89.20;;;;;;5035244;28;20366;-82
2021/03/30 06:25:42;;;;;;;;;;;7.60;89.60;;;;;;5034490;28;20051;-82
2021/03/30 06:28:17;;;;;;;31.02;16.98;;;7.50;89.90;;;;;;5033205;28;19905;-82
2021/03/30 06:31:03;;;;;;;30.05;16.25;;;7.60;90.30;;;;;;5035273;28;20021;-82
2021/03/30 06:33:34;;;;;;;29.05;16.00;;;7.70;90.20;;;;;;5035249;28;20021;-82
2021/03/30 06:36:23;;;;;;;30.95;16.90;;;7.70;90.20;;;;;;5033238;28;20089;-82
2021/03/30 06:39:02;;;;;;;26.23;16.52;;;7.80;90.50;;;;;;5032879;28;20036;-82
2021/03/30 06:47:15;;;;;;;32.55;17.90;;;7.80;91.70;;;;;;5033824;28;20025;-82
2021/03/30 06:49:51;;;;;;;;;;;7.90;91.90;;;;;;5031636;28;20021;-82
2021/03/30 06:52:19;;;;;;;41.92;22.13;;;7.90;92.60;;;;;;5032054;28;19935;-82
2021/03/30 06:54:58;;;;;;;36.45;20.92;;;8.10;93.40;;;;;;5027418;28;20108;-82
2021/03/30 06:57:46;;;;;;;33.70;20.00;;;8.20;93.60;;;;;;5032582;28;20021;-81
2021/03/30 07:00:18;;;;;;;36.20;20.80;;;8.30;93.50;;;;;;5031694;28;20163;-82
2021/03/30 07:02:55;;;;;;;42.30;21.85;;;8.50;93.60;;;;;;5041776;28;20026;-82
2021/03/30 07:05:31;;;;;;;41.00;24.05;;;8.60;93.60;;;;;;5031901;28;20017;-82
2021/03/30 07:08:20;;;;;;;43.63;22.27;;;8.70;93.90;;;;;;5034237;28;20070;-82
2021/03/30 07:10:48;;;;;;;46.85;24.08;;;8.90;93.80;;;;;;5032991;28;20116;-81
2021/03/30 07:13:16;;;;;;;41.67;23.52;;;9.00;93.80;;;;;;5034394;28;20163;-81
2021/03/30 07:15:42;;;;;;;40.97;22.38;;;9.10;93.80;;;;;;5032490;28;20025;-82
2021/03/30 07:18:43;;;;;;;42.67;24.15;;;9.20;93.80;;;;;;5034301;28;20037;-82
2021/03/30 07:21:11;;;;;;;40.10;24.52;;;9.30;93.70;;;;;;5034396;28;20028;-81
2021/03/30 07:23:39;;;;;;;46.83;25.15;;;9.30;93.70;;;;;;5032710;28;20435;-82
2021/03/30 07:26:19;;;;;;;42.80;24.33;;;9.40;93.90;;;;;;5032715;28;20021;-81
2021/03/30 07:29:03;;;;;;;40.78;23.20;;;9.60;93.70;;;;;;5032689;28;20546;-82
2021/03/30 07:31:46;;;;;;;42.92;22.58;;;9.70;93.70;;;;;;5034047;28;20037;-82
2021/03/30 07:34:14;;;;;;;42.75;23.17;;;9.80;93.50;;;;;;5033018;28;20501;-82
2021/03/30 07:36:54;;;;;;;37.63;22.85;;;9.90;93.50;;;;;;5033870;28;20493;-82
2021/03/30 07:39:23;;;;;;;41.17;23.77;;;10.00;93.40;;;;;;5033769;28;20540;-81
2021/03/30 07:41:49;;;;;;;41.08;23.75;;;10.10;93.40;;;;;;5033506;28;20061;-82
2021/03/30 07:44:15;;;;;;;42.65;24.48;;;10.20;93.30;;;;;;5032489;28;20025;-82
2021/03/30 07:46:42;;;;;;;42.08;22.80;;;10.40;92.90;;;;;;5033760;28;20488;-82
2021/03/30 07:49:09;;;;;;;37.90;22.65;;;10.50;92.60;;;;;;5032299;28;20504;-82
2021/03/30 07:51:40;;;;;;;35.65;22.00;;;10.60;92.50;;;;;;5033445;28;20014;-82
2021/03/30 07:54:14;;;;;;;39.95;23.95;;;10.80;92.30;;;;;;5032380;28;20032;-81
2021/03/30 07:56:40;;;;;;;41.53;25.80;;;10.90;92.10;;;;;;5033401;28;20104;-82
2021/03/30 07:59:06;;;;;;;39.80;23.67;;;11.00;91.90;;;;;;5032163;28;20108;-82
2021/03/30 08:01:33;;;;;;;46.25;25.80;;;11.20;91.50;;;;;;5032206;28;20025;-82
2021/03/30 08:04:00;;;;;;;38.63;24.33;;;11.30;91.30;;;;;;5032114;28;20029;-82
2021/03/30 08:06:28;;;;;;;41.95;24.27;;;11.50;90.90;;;;;;5033409;28;20017;-82
2021/03/30 08:08:55;;;;;;;49.90;27.60;;;11.60;91.10;;;;;;5033184;28;20096;-82
2021/03/30 08:11:39;;;;;;;40.20;23.67;;;11.80;90.90;;;;;;5031986;28;20072;-81
2021/03/30 08:14:10;;;;;;;43.40;25.73;;;11.90;90.70;;;;;;5032011;28;20075;-82
2021/03/30 08:16:39;;;;;;;42.53;25.75;;;11.90;91.00;;;;;;5031983;28;20481;-82
2021/03/30 08:19:10;;;;;;;37.30;22.75;;;12.00;90.90;;;;;;5033044;28;20445;-82
2021/03/30 08:21:56;;;;;;;39.80;23.40;;;12.10;90.80;;;;;;5048422;28;20466;-82
2021/03/30 08:24:23;;;;;;;46.35;25.00;;;12.20;90.60;;;;;;5033168;28;20396;-81
2021/03/30 08:26:49;;;;;;;44.13;25.70;;;12.20;90.30;;;;;;5047456;28;20029;-81
2021/03/30 08:29:19;;;;;;;42.92;24.83;;;12.30;90.10;;;;;;5032942;28;20029;-81
2021/03/30 08:31:53;;;;;;;45.40;24.45;;;12.40;90.10;;;;;;5033003;28;20025;-82
2021/03/30 08:34:26;;;;;;;44.00;24.38;;;12.50;90.00;;;;;;5033169;28;20025;-81
2021/03/30 08:36:56;;;;;;;43.38;26.95;;;12.50;89.40;;;;;;5041140;28;20044;-81
2021/03/30 08:39:21;;;;;;;45.40;26.15;;;12.60;89.90;;;;;;5048015;28;20053;-81
2021/03/30 08:41:47;;;;;;;42.80;25.38;;;12.70;89.70;;;;;;5048157;28;20029;-81
2021/03/30 08:44:22;;;;;;;38.30;25.13;;;12.80;89.40;;;;;;5048108;28;20040;-82
2021/03/30 08:46:50;;;;;;;41.92;24.30;;;12.90;89.30;;;;;;5048245;28;20029;-82
2021/03/30 08:49:32;;;;;;;44.22;26.33;;;12.90;87.80;;;;;;5048111;28;20025;-82
2021/03/30 08:52:14;;;;;;;43.42;25.73;;;13.00;85.60;;;;;;5048142;28;20037;-82
2021/03/30 08:54:50;;;;;;;40.08;23.67;;;13.10;84.80;;;;;;5048195;28;20021;-81
2021/03/30 08:57:21;;;;;;;46.42;25.90;;;13.20;85.00;;;;;;5045149;28;20018;-81
2021/03/30 08:59:47;;;;;;;42.75;23.98;;;13.30;84.00;;;;;;5050843;28;20519;-82
2021/03/30 09:02:12;;;;;;;43.50;25.00;;;13.40;83.60;;;;;;5046430;28;20049;-81
2021/03/30 09:04:43;;;;;;;46.50;27.17;;;13.50;83.70;;;;;;5031420;28;20029;-81
2021/03/30 09:07:12;;;;;;;50.30;28.13;;;13.60;82.30;;;;;;5032680;28;20104;-81
2021/03/30 09:09:38;;;;;;;42.83;24.63;;;13.80;81.40;;;;;;5032483;28;20025;-82
2021/03/30 09:12:18;;;;;;;41.97;24.63;;;13.90;81.30;;;;;;5032330;28;20029;-81
2021/03/30 09:14:58;;;;;;;43.38;24.20;;;14.10;81.60;;;;;;5030008;28;20029;-82
2021/03/30 09:17:23;;;;;;;;;;;14.30;81.90;;;;;;5012048;28;20026;-82
2021/03/30 09:19:50;;;;;;;43.60;27.00;;;14.50;82.20;;;;;;5012666;28;19905;-82
2021/03/30 09:22:27;;;;;;;44.92;25.35;;;15.20;80.00;;;;;;5011596;28;20109;-82
2021/03/30 09:25:25;;;;;;;43.65;25.48;;;17.40;74.80;;;;;;5011516;28;20052;-82
2021/03/30 09:27:50;;;;;;;47.92;27.50;;;19.40;68.20;;;;;;5012687;28;20100;-82
2021/03/30 09:30:18;;;;;;;41.72;26.58;;;20.50;60.60;;;;;;5012525;28;20101;-82
2021/03/30 09:32:46;;;;;;;41.33;25.60;;;21.20;58.00;;;;;;5011345;28;20029;-82
2021/03/30 09:35:13;;;;;;;38.53;25.05;;;22.00;55.60;;;;;;5012459;28;20054;-82
2021/03/30 09:37:45;;;;;;;38.67;23.85;;;22.70;53.90;;;;;;5027921;28;20476;-82
2021/03/30 09:40:13;;;;;;;33.35;21.90;;;23.80;51.90;;;;;;5035555;28;20046;-82
2021/03/30 09:42:41;;;;;;;35.20;22.48;;;25.10;50.30;;;;;;5034878;28;20060;-82
2021/03/30 09:45:15;;;;;;;34.55;21.70;;;26.10;48.30;;;;;;5035912;28;20496;-82
2021/03/30 09:47:42;;;;;;;30.48;21.13;;;27.00;46.70;;;;;;5035989;28;20029;-82
2021/03/30 09:50:08;;;;;;;31.00;22.30;;;27.80;45.00;;;;;;5034489;28;20190;-82
2021/03/30 09:52:37;;;;;;;27.00;19.52;;;28.60;43.40;;;;;;5032315;28;20044;-83
2021/03/30 09:55:04;;;;;;;33.75;24.80;;;29.30;42.70;;;;;;5035652;28;20026;-83
2021/03/30 09:57:31;;;;;;;33.47;23.63;;;29.40;39.80;;;;;;5038014;28;20047;-83
2021/03/30 09:59:57;;;;;;;28.55;21.73;;;29.00;39.80;;;;;;5028478;28;20021;-83
2021/03/30 10:02:34;;;;;;;23.67;18.65;;;29.50;40.40;;;;;;5035398;28;20022;-83
2021/03/30 10:05:02;;;;;;;32.53;23.08;;;30.50;40.40;;;;;;5034850;28;20022;-83
2021/03/30 10:07:38;;;;;;;26.13;18.55;;;30.80;37.90;;;;;;5033733;28;20488;-83
2021/03/30 10:10:07;;;;;;;28.77;21.95;;;31.20;38.80;;;;;;5032361;28;20397;-83
2021/03/30 10:12:38;;;;;;;33.33;23.63;;;31.50;37.20;;;;;;5034916;28;20025;-83
2021/03/30 10:15:05;;;;;;;32.25;23.58;;;31.70;36.40;;;;;;5028130;28;20049;-83
2021/03/30 10:17:31;;;;;;;32.38;25.65;;;31.40;35.90;;;;;;5034734;28;20032;-83
2021/03/30 10:19:59;;;;;;;32.45;25.20;;;31.10;36.00;;;;;;5030722;28;20444;-83
2021/03/30 10:22:35;;;;;;;29.42;21.70;;;31.00;35.80;;;;;;5033724;28;20025;-83
2021/03/30 10:25:18;;;;;;;31.80;24.67;;;31.40;35.50;;;;;;5033920;28;20432;-83
2021/03/30 10:27:50;;;;;;;26.80;21.58;;;31.10;34.10;;;;;;5034596;28;20449;-83
2021/03/30 10:30:16;;;;;;;26.77;20.67;;;31.70;35.00;;;;;;5033500;28;20021;-85
2021/03/30 10:32:49;;;;;;;24.50;20.63;;;32.00;34.30;;;;;;5033319;28;20030;-88
2021/03/30 10:35:15;;;;;;;22.25;18.10;;;32.50;33.90;;;;;;5035053;28;20014;-86
2021/03/30 10:37:42;;;;;;;23.77;19.58;;;33.40;33.90;;;;;;5050832;28;20028;-87
2021/03/30 10:40:09;;;;;;;24.33;19.30;;;34.20;32.70;;;;;;5034793;28;20571;-83
2021/03/30 10:42:39;;;;;;;21.38;17.00;;;35.00;32.30;;;;;;5034913;28;20578;-81
2021/03/30 10:45:07;;;;;;;21.85;18.55;;;35.20;31.60;;;;;;5033536;28;20423;-81
2021/03/30 10:47:38;;;;;;;18.02;14.93;;;34.70;31.50;;;;;;5034313;28;20503;-80
2021/03/30 10:50:11;;;;;;;20.17;17.35;;;35.30;32.20;;;;;;5030192;28;20026;-82
2021/03/30 10:52:38;;;;;;;19.00;16.33;;;35.80;31.30;;;;;;5034625;28;20022;-81
2021/03/30 10:55:08;;;;;;;13.77;10.77;;;36.10;30.60;;;;;;5013579;28;20061;-81
2021/03/30 10:57:35;;;;;;;14.32;12.50;;;36.30;30.00;;;;;;5017140;28;20018;-81
2021/03/30 11:00:04;;;;;;;13.90;11.40;;;36.50;28.90;;;;;;5027176;28;20421;-82
2021/03/30 11:02:29;;;;;;;14.32;12.32;;;36.60;29.60;;;;;;5034203;28;20030;-82
2021/03/30 11:04:55;;;;;;;18.52;14.27;;;36.50;28.60;;;;;;5033164;28;20028;-81
2021/03/30 11:07:21;;;;;;;14.75;11.60;;;36.70;28.90;;;;;;5033224;28;20026;-81
2021/03/30 11:09:46;;;;;;;14.63;10.85;;;37.10;29.20;;;;;;5033004;28;20022;-82
2021/03/30 11:12:13;;;;;;;12.45;10.32;;;37.20;28.60;;;;;;5034432;28;20112;-82
2021/03/30 11:14:39;;;;;;;9.45;8.00;;;37.90;28.60;;;;;;5033802;28;20025;-81
2021/03/30 11:17:04;;;;;;;6.22;5.60;;;38.50;28.50;;;;;;5014369;28;20164;-80
2021/03/30 11:19:30;;;;;;;14.13;12.45;;;38.80;27.70;;;;;;5013270;28;20033;-82
2021/03/30 11:21:57;;;;;;;10.65;9.52;;;39.00;28.20;;;;;;5012912;28;20034;-81
2021/03/30 11:24:24;;;;;;;12.15;9.77;;;39.40;28.40;;;;;;5013189;28;20036;-83
2021/03/30 11:26:52;;;;;;;14.55;12.80;;;39.60;28.40;;;;;;5012945;28;20018;-82
2021/03/30 11:30:06;;;;;;;14.63;13.13;;;39.30;27.30;;;;;;5017956;28;20018;-82
2021/03/30 11:39:42;;;;;;;16.90;14.15;;;38.90;26.90;;;;;;5033611;28;20045;-82
2021/03/30 11:42:08;;;;;;;11.38;10.27;;;39.00;25.70;;;;;;5032455;28;20044;-82
2021/03/30 11:44:34;;;;;;;12.77;11.45;;;38.90;26.00;;;;;;5032480;28;20430;-82
2021/03/30 11:47:00;;;;;;;12.27;11.02;;;39.20;25.50;;;;;;5032430;28;20029;-82
2021/03/30 11:49:30;;;;;;;12.25;10.43;;;39.10;26.10;;;;;;5032497;28;20022;-82
2021/03/30 11:51:55;;;;;;;11.30;10.10;;;39.70;26.20;;;;;;5032232;28;20028;-82
2021/03/30 11:54:21;;;;;;;20.30;17.20;;;40.30;26.40;;;;;;5032398;28;20025;-82
2021/03/30 11:56:47;;;;;;;17.35;13.80;;;40.50;25.10;;;;;;5033194;28;20477;-82
2021/03/30 11:59:13;;;;;;;18.42;16.45;;;41.00;25.30;;;;;;5032277;28;20100;-82
2021/03/30 12:01:38;;;;;;;12.38;10.82;;;40.70;24.50;;;;;;5031823;28;20366;-81
2021/03/30 12:04:05;;;;;;;14.00;12.52;;;40.10;25.60;;;;;;5033489;28;20021;-82
2021/03/30 12:06:31;;;;;;;16.98;15.27;;;40.30;25.90;;;;;;5032154;28;20026;-82
2021/03/30 12:08:56;;;;;;;22.55;20.15;;;40.10;25.40;;;;;;5032178;28;20087;-82
2021/03/30 12:11:22;;;;;;;11.80;10.05;;;40.20;24.60;;;;;;5032057;28;20025;-82
2021/03/30 12:13:47;;;;;;;17.92;16.05;;;40.30;25.50;;;;;;5031931;28;20123;-82
2021/03/30 12:16:13;;;;;;;16.80;14.55;;;40.70;24.30;;;;;;5019727;28;20033;-82
2021/03/30 12:18:38;;;;;;;14.73;12.70;;;40.90;24.20;;;;;;5013327;28;20026;-81
2021/03/30 12:21:04;;;;;;;9.75;8.48;;;40.00;25.00;;;;;;5013029;28;20474;-82
2021/03/30 12:23:30;;;;;;;17.23;15.25;;;39.70;25.60;;;;;;5013334;28;20366;-83
2021/03/30 12:25:55;;;;;;;18.10;15.07;;;39.10;24.70;;;;;;5024783;28;20485;-82
2021/03/30 12:28:21;;;;;;;17.33;15.52;;;37.40;24.50;;;;;;5032247;28;20033;-82
2021/03/30 12:30:48;;;;;;;20.75;16.88;;;36.30;26.00;;;;;;5025785;28;20018;-82
2021/03/30 12:33:13;;;;;;;23.23;20.05;;;35.60;26.70;;;;;;5031105;28;20108;-82
2021/03/30 12:35:39;;;;;;;20.65;17.40;;;34.40;26.30;;;;;;5031273;28;20026;-82
2021/03/30 12:38:04;;;;;;;18.88;16.75;;;34.10;27.00;;;;;;5031266;28;20044;-83
2021/03/30 12:40:30;;;;;;;18.90;16.00;;;34.30;26.90;;;;;;5025448;28;20041;-82
2021/03/30 12:42:56;;;;;;;19.23;15.95;;;34.70;27.20;;;;;;5031178;28;20117;-82
2021/03/30 12:45:22;;;;;;;20.25;16.83;;;35.40;27.30;;;;;;5032661;28;20025;-82
2021/03/30 12:47:48;;;;;;;19.58;16.95;;;35.90;26.60;;;;;;5047807;28;20022;-82
2021/03/30 12:50:14;;;;;;;21.55;17.48;;;36.60;26.40;;;;;;5048005;28;20473;-82
2021/03/30 12:52:40;;;;;;;21.20;16.52;;;37.80;25.40;;;;;;5048070;28;20029;-82
2021/03/30 12:55:08;;;;;;;20.63;16.75;;;37.80;25.00;;;;;;5046787;28;20033;-82
2021/03/30 12:57:34;;;;;;;16.17;14.33;;;38.40;24.80;;;;;;5032164;28;20013;-82